sensor_id;sensor_type;location;lat;lon;timestamp;P1;durP1;ratioP1;P2;durP2;ratioP2
14592;SDS011;7383;52.354;9.756;2022-10-16T00:01:40;1.17;;;0.80;;
14592;SDS011;7383;52.354;9.756;2022-10-16T00:04:08;0.77;;;0.70;;
14592;SDS011;7383;52.354;9.756;2022-10-16T00:06:37;0.65;;;0.60;;
14592;SDS011;7383;52.354;9.756;2022-10-16T00:09:04;0.60;;;0.60;;
14592;SDS011;7383;52.354;9.756;2022-10-16T00:11:33;0.63;;;0.55;;
14592;SDS011;7383;52.354;9.756;2022-10-16T00:14:02;1.10;;;0.80;;
14592;SDS011;7383;52.354;9.756;2022-10-16T00:16:34;1.85;;;1.08;;
14592;SDS011;7383;52.354;9.756;2022-10-16T00:19:01;1.85;;;0.60;;
14592;SDS011;7383;52.354;9.756;2022-10-16T00:21:31;0.60;;;0.50;;
14592;SDS011;7383;52.354;9.756;2022-10-16T00:23:59;0.60;;;0.60;;
14592;SDS011;7383;52.354;9.756;2022-10-16T00:26:28;0.50;;;0.50;;
14592;SDS011;7383;52.354;9.756;2022-10-16T00:28:57;0.70;;;0.70;;
14592;SDS011;7383;52.354;9.756;2022-10-16T00:31:24;0.73;;;0.57;;
14592;SDS011;7383;52.354;9.756;2022-10-16T00:33:54;0.82;;;0.65;;
14592;SDS011;7383;52.354;9.756;2022-10-16T00:36:22;1.08;;;0.50;;
14592;SDS011;7383;52.354;9.756;2022-10-16T00:38:53;0.40;;;0.40;;
14592;SDS011;7383;52.354;9.756;2022-10-16T00:41:22;0.38;;;0.38;;
14592;SDS011;7383;52.354;9.756;2022-10-16T00:43:52;0.32;;;0.32;;
14592;SDS011;7383;52.354;9.756;2022-10-16T00:46:24;0.30;;;0.30;;
14592;SDS011;7383;52.354;9.756;2022-10-16T00:48:55;2.00;;;0.60;;
14592;SDS011;7383;52.354;9.756;2022-10-16T00:51:27;0.57;;;0.57;;
14592;SDS011;7383;52.354;9.756;2022-10-16T00:53:57;0.40;;;0.40;;
14592;SDS011;7383;52.354;9.756;2022-10-16T00:56:24;1.10;;;0.60;;
14592;SDS011;7383;52.354;9.756;2022-10-16T00:58:54;0.70;;;0.70;;
14592;SDS011;7383;52.354;9.756;2022-10-16T01:01:21;0.55;;;0.55;;
14592;SDS011;7383;52.354;9.756;2022-10-16T01:03:49;0.80;;;0.80;;
14592;SDS011;7383;52.354;9.756;2022-10-16T01:06:23;0.50;;;0.50;;
14592;SDS011;7383;52.354;9.756;2022-10-16T01:09:00;0.70;;;0.70;;
14592;SDS011;7383;52.354;9.756;2022-10-16T01:11:38;0.70;;;0.70;;
14592;SDS011;7383;52.354;9.756;2022-10-16T01:14:11;0.73;;;0.73;;
14592;SDS011;7383;52.354;9.756;2022-10-16T01:16:48;0.65;;;0.65;;
14592;SDS011;7383;52.354;9.756;2022-10-16T01:19:24;0.93;;;0.93;;
14592;SDS011;7383;52.354;9.756;2022-10-16T01:22:02;1.08;;;1.08;;
14592;SDS011;7383;52.354;9.756;2022-10-16T01:24:37;0.90;;;0.90;;
14592;SDS011;7383;52.354;9.756;2022-10-16T01:27:11;0.75;;;0.75;;
14592;SDS011;7383;52.354;9.756;2022-10-16T01:29:55;0.80;;;0.80;;
14592;SDS011;7383;52.354;9.756;2022-10-16T01:32:31;1.58;;;1.48;;
14592;SDS011;7383;52.354;9.756;2022-10-16T01:35:17;0.80;;;0.80;;
14592;SDS011;7383;52.354;9.756;2022-10-16T01:38:05;0.80;;;0.80;;
14592;SDS011;7383;52.354;9.756;2022-10-16T01:40:44;1.40;;;1.10;;
14592;SDS011;7383;52.354;9.756;2022-10-16T01:43:39;0.98;;;0.85;;
14592;SDS011;7383;52.354;9.756;2022-10-16T01:46:13;1.13;;;1.02;;
14592;SDS011;7383;52.354;9.756;2022-10-16T01:48:43;0.98;;;0.98;;
14592;SDS011;7383;52.354;9.756;2022-10-16T01:51:14;1.20;;;1.10;;
14592;SDS011;7383;52.354;9.756;2022-10-16T01:53:45;1.70;;;1.08;;
14592;SDS011;7383;52.354;9.756;2022-10-16T01:56:28;1.00;;;1.00;;
14592;SDS011;7383;52.354;9.756;2022-10-16T01:59:00;1.75;;;1.10;;
14592;SDS011;7383;52.354;9.756;2022-10-16T02:01:35;1.02;;;1.00;;
14592;SDS011;7383;52.354;9.756;2022-10-16T02:04:20;1.05;;;1.05;;
14592;SDS011;7383;52.354;9.756;2022-10-16T02:06:50;1.10;;;1.00;;
14592;SDS011;7383;52.354;9.756;2022-10-16T02:09:20;2.33;;;1.08;;
14592;SDS011;7383;52.354;9.756;2022-10-16T02:11:58;0.90;;;0.90;;
14592;SDS011;7383;52.354;9.756;2022-10-16T02:14:37;0.98;;;0.82;;
14592;SDS011;7383;52.354;9.756;2022-10-16T02:19:53;0.93;;;0.93;;
14592;SDS011;7383;52.354;9.756;2022-10-16T02:22:24;1.35;;;1.08;;
14592;SDS011;7383;52.354;9.756;2022-10-16T02:24:58;1.15;;;0.85;;
14592;SDS011;7383;52.354;9.756;2022-10-16T02:27:30;1.80;;;1.20;;
14592;SDS011;7383;52.354;9.756;2022-10-16T02:30:05;1.77;;;1.13;;
14592;SDS011;7383;52.354;9.756;2022-10-16T02:32:39;1.20;;;1.10;;
14592;SDS011;7383;52.354;9.756;2022-10-16T02:35:09;1.35;;;1.25;;
14592;SDS011;7383;52.354;9.756;2022-10-16T02:37:36;1.27;;;1.25;;
14592;SDS011;7383;52.354;9.756;2022-10-16T02:40:15;1.20;;;1.10;;
14592;SDS011;7383;52.354;9.756;2022-10-16T02:43:06;1.95;;;1.27;;
14592;SDS011;7383;52.354;9.756;2022-10-16T02:45:49;1.45;;;1.30;;
14592;SDS011;7383;52.354;9.756;2022-10-16T02:48:16;1.30;;;1.20;;
14592;SDS011;7383;52.354;9.756;2022-10-16T02:50:45;1.10;;;1.10;;
14592;SDS011;7383;52.354;9.756;2022-10-16T02:53:12;1.50;;;1.40;;
14592;SDS011;7383;52.354;9.756;2022-10-16T02:58:24;1.08;;;1.08;;
14592;SDS011;7383;52.354;9.756;2022-10-16T03:00:55;3.38;;;1.50;;
14592;SDS011;7383;52.354;9.756;2022-10-16T03:03:22;1.65;;;1.42;;
14592;SDS011;7383;52.354;9.756;2022-10-16T03:05:51;1.20;;;1.10;;
14592;SDS011;7383;52.354;9.756;2022-10-16T03:08:17;1.55;;;1.17;;
14592;SDS011;7383;52.354;9.756;2022-10-16T03:10:48;1.23;;;0.98;;
14592;SDS011;7383;52.354;9.756;2022-10-16T03:13:18;1.38;;;1.30;;
14592;SDS011;7383;52.354;9.756;2022-10-16T03:15:49;1.00;;;1.00;;
14592;SDS011;7383;52.354;9.756;2022-10-16T03:18:17;1.27;;;1.17;;
14592;SDS011;7383;52.354;9.756;2022-10-16T03:20:44;1.20;;;1.10;;
14592;SDS011;7383;52.354;9.756;2022-10-16T03:23:15;0.93;;;0.93;;
14592;SDS011;7383;52.354;9.756;2022-10-16T03:30:38;1.00;;;1.00;;
14592;SDS011;7383;52.354;9.756;2022-10-16T03:42:58;1.23;;;1.17;;
14592;SDS011;7383;52.354;9.756;2022-10-16T03:45:27;1.08;;;0.90;;
14592;SDS011;7383;52.354;9.756;2022-10-16T03:48:13;1.15;;;1.15;;
14592;SDS011;7383;52.354;9.756;2022-10-16T03:50:42;1.25;;;1.20;;
14592;SDS011;7383;52.354;9.756;2022-10-16T03:53:25;1.70;;;1.02;;
14592;SDS011;7383;52.354;9.756;2022-10-16T03:57:12;1.17;;;1.08;;
14592;SDS011;7383;52.354;9.756;2022-10-16T04:00:14;1.70;;;1.02;;
14592;SDS011;7383;52.354;9.756;2022-10-16T04:02:41;1.00;;;1.00;;
14592;SDS011;7383;52.354;9.756;2022-10-16T04:05:08;3.92;;;1.38;;
14592;SDS011;7383;52.354;9.756;2022-10-16T04:07:38;1.35;;;1.20;;
14592;SDS011;7383;52.354;9.756;2022-10-16T04:12:46;1.40;;;1.30;;
14592;SDS011;7383;52.354;9.756;2022-10-16T04:15:16;1.73;;;1.45;;
14592;SDS011;7383;52.354;9.756;2022-10-16T04:17:43;1.30;;;1.20;;
14592;SDS011;7383;52.354;9.756;2022-10-16T04:20:13;1.20;;;1.10;;
14592;SDS011;7383;52.354;9.756;2022-10-16T04:22:40;1.20;;;1.20;;
14592;SDS011;7383;52.354;9.756;2022-10-16T04:25:16;1.38;;;1.38;;
14592;SDS011;7383;52.354;9.756;2022-10-16T04:27:43;1.67;;;1.60;;
14592;SDS011;7383;52.354;9.756;2022-10-16T04:30:11;2.33;;;1.67;;
14592;SDS011;7383;52.354;9.756;2022-10-16T04:32:48;1.95;;;1.65;;
14592;SDS011;7383;52.354;9.756;2022-10-16T04:35:21;1.50;;;1.40;;
14592;SDS011;7383;52.354;9.756;2022-10-16T04:37:56;2.97;;;1.70;;
14592;SDS011;7383;52.354;9.756;2022-10-16T04:40:29;2.83;;;1.60;;
14592;SDS011;7383;52.354;9.756;2022-10-16T04:43:00;1.77;;;1.52;;
14592;SDS011;7383;52.354;9.756;2022-10-16T04:45:27;1.77;;;1.33;;
14592;SDS011;7383;52.354;9.756;2022-10-16T04:47:59;2.13;;;1.83;;
14592;SDS011;7383;52.354;9.756;2022-10-16T04:50:36;1.88;;;1.70;;
14592;SDS011;7383;52.354;9.756;2022-10-16T04:55:50;1.50;;;1.45;;
14592;SDS011;7383;52.354;9.756;2022-10-16T04:58:21;1.70;;;1.60;;
14592;SDS011;7383;52.354;9.756;2022-10-16T05:00:49;1.80;;;1.60;;
14592;SDS011;7383;52.354;9.756;2022-10-16T05:06:11;1.50;;;1.40;;
14592;SDS011;7383;52.354;9.756;2022-10-16T05:08:47;1.85;;;1.75;;
14592;SDS011;7383;52.354;9.756;2022-10-16T05:11:15;2.00;;;1.90;;
14592;SDS011;7383;52.354;9.756;2022-10-16T05:13:42;1.48;;;1.42;;
14592;SDS011;7383;52.354;9.756;2022-10-16T05:16:09;1.75;;;1.58;;
14592;SDS011;7383;52.354;9.756;2022-10-16T05:18:36;1.73;;;1.63;;
14592;SDS011;7383;52.354;9.756;2022-10-16T05:24:15;1.20;;;1.20;;
14592;SDS011;7383;52.354;9.756;2022-10-16T05:26:42;1.40;;;1.30;;
14592;SDS011;7383;52.354;9.756;2022-10-16T05:29:15;1.30;;;1.27;;
14592;SDS011;7383;52.354;9.756;2022-10-16T05:35:07;1.30;;;1.20;;
14592;SDS011;7383;52.354;9.756;2022-10-16T05:40:53;1.35;;;1.25;;
14592;SDS011;7383;52.354;9.756;2022-10-16T05:46:57;1.17;;;1.17;;
14592;SDS011;7383;52.354;9.756;2022-10-16T05:53:07;1.92;;;1.50;;
14592;SDS011;7383;52.354;9.756;2022-10-16T05:55:55;1.67;;;1.30;;
14592;SDS011;7383;52.354;9.756;2022-10-16T05:58:45;1.70;;;1.60;;
14592;SDS011;7383;52.354;9.756;2022-10-16T06:04:45;1.73;;;1.63;;
14592;SDS011;7383;52.354;9.756;2022-10-16T06:07:20;1.83;;;1.52;;
14592;SDS011;7383;52.354;9.756;2022-10-16T06:13:00;2.10;;;2.00;;
14592;SDS011;7383;52.354;9.756;2022-10-16T06:15:29;2.00;;;1.90;;
14592;SDS011;7383;52.354;9.756;2022-10-16T06:22:43;1.55;;;1.40;;
14592;SDS011;7383;52.354;9.756;2022-10-16T06:27:19;1.60;;;1.50;;
14592;SDS011;7383;52.354;9.756;2022-10-16T06:29:54;1.42;;;1.33;;
14592;SDS011;7383;52.354;9.756;2022-10-16T06:32:35;1.50;;;1.40;;
14592;SDS011;7383;52.354;9.756;2022-10-16T06:38:27;0.98;;;0.98;;
14592;SDS011;7383;52.354;9.756;2022-10-16T06:44:41;1.40;;;1.30;;
14592;SDS011;7383;52.354;9.756;2022-10-16T06:47:17;1.20;;;1.20;;
14592;SDS011;7383;52.354;9.756;2022-10-16T06:49:54;1.45;;;1.35;;
14592;SDS011;7383;52.354;9.756;2022-10-16T06:52:29;1.30;;;1.30;;
14592;SDS011;7383;52.354;9.756;2022-10-16T06:58:33;1.25;;;1.25;;
14592;SDS011;7383;52.354;9.756;2022-10-16T07:25:08;1.10;;;1.10;;
14592;SDS011;7383;52.354;9.756;2022-10-16T07:27:34;1.15;;;1.05;;
14592;SDS011;7383;52.354;9.756;2022-10-16T07:30:01;1.02;;;1.02;;
14592;SDS011;7383;52.354;9.756;2022-10-16T07:32:27;1.30;;;1.17;;
14592;SDS011;7383;52.354;9.756;2022-10-16T07:34:54;1.40;;;1.30;;
14592;SDS011;7383;52.354;9.756;2022-10-16T07:37:21;1.40;;;1.30;;
14592;SDS011;7383;52.354;9.756;2022-10-16T07:39:48;2.30;;;2.15;;
14592;SDS011;7383;52.354;9.756;2022-10-16T07:42:15;2.10;;;2.00;;
14592;SDS011;7383;52.354;9.756;2022-10-16T07:44:42;1.15;;;1.15;;
14592;SDS011;7383;52.354;9.756;2022-10-16T07:47:09;1.23;;;1.13;;
14592;SDS011;7383;52.354;9.756;2022-10-16T07:49:35;1.05;;;1.00;;
14592;SDS011;7383;52.354;9.756;2022-10-16T07:52:02;2.17;;;1.42;;
14592;SDS011;7383;52.354;9.756;2022-10-16T07:54:29;1.38;;;1.30;;
14592;SDS011;7383;52.354;9.756;2022-10-16T07:56:55;4.32;;;2.92;;
14592;SDS011;7383;52.354;9.756;2022-10-16T07:59:23;9.20;;;4.60;;
14592;SDS011;7383;52.354;9.756;2022-10-16T08:01:50;4.72;;;3.10;;
14592;SDS011;7383;52.354;9.756;2022-10-16T08:04:16;3.30;;;2.40;;
14592;SDS011;7383;52.354;9.756;2022-10-16T08:06:43;1.73;;;1.63;;
14592;SDS011;7383;52.354;9.756;2022-10-16T08:09:10;1.20;;;1.20;;
14592;SDS011;7383;52.354;9.756;2022-10-16T08:11:36;1.02;;;1.00;;
14592;SDS011;7383;52.354;9.756;2022-10-16T08:14:03;1.08;;;1.08;;
14592;SDS011;7383;52.354;9.756;2022-10-16T08:16:30;1.60;;;1.50;;
14592;SDS011;7383;52.354;9.756;2022-10-16T08:18:57;1.20;;;1.20;;
14592;SDS011;7383;52.354;9.756;2022-10-16T08:21:24;0.90;;;0.90;;
14592;SDS011;7383;52.354;9.756;2022-10-16T08:23:50;0.70;;;0.70;;
14592;SDS011;7383;52.354;9.756;2022-10-16T08:26:19;0.73;;;0.63;;
14592;SDS011;7383;52.354;9.756;2022-10-16T08:28:49;0.90;;;0.90;;
14592;SDS011;7383;52.354;9.756;2022-10-16T08:31:16;0.80;;;0.80;;
14592;SDS011;7383;52.354;9.756;2022-10-16T08:33:44;1.80;;;0.90;;
14592;SDS011;7383;52.354;9.756;2022-10-16T08:36:12;0.80;;;0.80;;
14592;SDS011;7383;52.354;9.756;2022-10-16T08:38:39;0.60;;;0.60;;
14592;SDS011;7383;52.354;9.756;2022-10-16T08:44:27;0.70;;;0.70;;
14592;SDS011;7383;52.354;9.756;2022-10-16T08:47:06;1.10;;;1.00;;
14592;SDS011;7383;52.354;9.756;2022-10-16T08:49:40;1.02;;;1.02;;
14592;SDS011;7383;52.354;9.756;2022-10-16T08:52:16;0.77;;;0.77;;
14592;SDS011;7383;52.354;9.756;2022-10-16T08:54:43;0.93;;;0.82;;
14592;SDS011;7383;52.354;9.756;2022-10-16T08:57:14;0.80;;;0.80;;
14592;SDS011;7383;52.354;9.756;2022-10-16T08:59:43;0.60;;;0.60;;
14592;SDS011;7383;52.354;9.756;2022-10-16T09:02:18;0.93;;;0.88;;
14592;SDS011;7383;52.354;9.756;2022-10-16T09:05:05;0.80;;;0.80;;
14592;SDS011;7383;52.354;9.756;2022-10-16T09:07:44;1.15;;;0.80;;
14592;SDS011;7383;52.354;9.756;2022-10-16T09:10:26;0.90;;;0.90;;
14592;SDS011;7383;52.354;9.756;2022-10-16T09:13:07;0.80;;;0.55;;
14592;SDS011;7383;52.354;9.756;2022-10-16T09:15:43;1.05;;;0.60;;
14592;SDS011;7383;52.354;9.756;2022-10-16T09:18:19;0.65;;;0.60;;
14592;SDS011;7383;52.354;9.756;2022-10-16T09:20:56;1.23;;;0.80;;
14592;SDS011;7383;52.354;9.756;2022-10-16T09:23:28;0.70;;;0.70;;
14592;SDS011;7383;52.354;9.756;2022-10-16T09:25:57;1.08;;;1.08;;
14592;SDS011;7383;52.354;9.756;2022-10-16T09:28:25;0.80;;;0.80;;
14592;SDS011;7383;52.354;9.756;2022-10-16T09:30:51;1.00;;;0.90;;
14592;SDS011;7383;52.354;9.756;2022-10-16T09:33:19;1.48;;;0.70;;
14592;SDS011;7383;52.354;9.756;2022-10-16T09:35:48;0.95;;;0.95;;
14592;SDS011;7383;52.354;9.756;2022-10-16T09:38:25;0.73;;;0.73;;
14592;SDS011;7383;52.354;9.756;2022-10-16T09:40:54;1.25;;;0.63;;
14592;SDS011;7383;52.354;9.756;2022-10-16T09:43:23;1.35;;;0.90;;
14592;SDS011;7383;52.354;9.756;2022-10-16T09:45:56;1.20;;;1.10;;
14592;SDS011;7383;52.354;9.756;2022-10-16T09:48:25;1.10;;;1.00;;
14592;SDS011;7383;52.354;9.756;2022-10-16T09:50:57;0.90;;;0.90;;
14592;SDS011;7383;52.354;9.756;2022-10-16T09:53:27;0.70;;;0.70;;
14592;SDS011;7383;52.354;9.756;2022-10-16T09:56:05;0.80;;;0.80;;
14592;SDS011;7383;52.354;9.756;2022-10-16T09:58:32;1.48;;;0.55;;
14592;SDS011;7383;52.354;9.756;2022-10-16T10:00:59;1.35;;;0.60;;
14592;SDS011;7383;52.354;9.756;2022-10-16T10:03:36;0.60;;;0.50;;
14592;SDS011;7383;52.354;9.756;2022-10-16T10:06:06;0.90;;;0.68;;
14592;SDS011;7383;52.354;9.756;2022-10-16T10:08:53;2.05;;;0.90;;
14592;SDS011;7383;52.354;9.756;2022-10-16T10:14:12;0.73;;;0.52;;
14592;SDS011;7383;52.354;9.756;2022-10-16T10:16:43;1.58;;;0.70;;
14592;SDS011;7383;52.354;9.756;2022-10-16T10:19:13;0.50;;;0.50;;
14592;SDS011;7383;52.354;9.756;2022-10-16T10:21:41;0.65;;;0.65;;
14592;SDS011;7383;52.354;9.756;2022-10-16T10:24:11;0.60;;;0.50;;
14592;SDS011;7383;52.354;9.756;2022-10-16T10:26:40;0.60;;;0.60;;
14592;SDS011;7383;52.354;9.756;2022-10-16T10:29:15;0.40;;;0.40;;
14592;SDS011;7383;52.354;9.756;2022-10-16T10:31:51;0.50;;;0.50;;
14592;SDS011;7383;52.354;9.756;2022-10-16T10:34:30;1.48;;;0.88;;
14592;SDS011;7383;52.354;9.756;2022-10-16T10:37:10;1.15;;;0.70;;
14592;SDS011;7383;52.354;9.756;2022-10-16T10:39:51;0.57;;;0.50;;
14592;SDS011;7383;52.354;9.756;2022-10-16T10:42:24;0.95;;;0.80;;
14592;SDS011;7383;52.354;9.756;2022-10-16T10:44:57;0.95;;;0.60;;
14592;SDS011;7383;52.354;9.756;2022-10-16T10:47:42;1.45;;;0.82;;
14592;SDS011;7383;52.354;9.756;2022-10-16T10:50:18;0.50;;;0.50;;
14592;SDS011;7383;52.354;9.756;2022-10-16T10:52:58;0.88;;;0.88;;
14592;SDS011;7383;52.354;9.756;2022-10-16T10:55:36;0.93;;;0.57;;
14592;SDS011;7383;52.354;9.756;2022-10-16T10:58:16;0.82;;;0.70;;
14592;SDS011;7383;52.354;9.756;2022-10-16T11:01:04;1.15;;;0.77;;
14592;SDS011;7383;52.354;9.756;2022-10-16T11:03:38;1.23;;;0.40;;
14592;SDS011;7383;52.354;9.756;2022-10-16T11:06:19;1.23;;;0.57;;
14592;SDS011;7383;52.354;9.756;2022-10-16T11:08:50;1.00;;;0.70;;
14592;SDS011;7383;52.354;9.756;2022-10-16T11:11:23;0.60;;;0.57;;
14592;SDS011;7383;52.354;9.756;2022-10-16T11:13:57;1.25;;;0.98;;
14592;SDS011;7383;52.354;9.756;2022-10-16T11:16:26;0.65;;;0.40;;
14592;SDS011;7383;52.354;9.756;2022-10-16T11:18:56;1.50;;;0.70;;
14592;SDS011;7383;52.354;9.756;2022-10-16T11:21:29;0.65;;;0.63;;
14592;SDS011;7383;52.354;9.756;2022-10-16T11:24:04;1.15;;;0.82;;
14592;SDS011;7383;52.354;9.756;2022-10-16T11:26:39;1.88;;;0.80;;
14592;SDS011;7383;52.354;9.756;2022-10-16T11:29:13;1.00;;;0.77;;
14592;SDS011;7383;52.354;9.756;2022-10-16T11:31:47;1.05;;;1.00;;
14592;SDS011;7383;52.354;9.756;2022-10-16T11:34:21;0.65;;;0.65;;
14592;SDS011;7383;52.354;9.756;2022-10-16T11:36:51;0.95;;;0.90;;
14592;SDS011;7383;52.354;9.756;2022-10-16T11:39:24;1.58;;;0.90;;
14592;SDS011;7383;52.354;9.756;2022-10-16T11:41:55;1.17;;;0.60;;
14592;SDS011;7383;52.354;9.756;2022-10-16T11:44:33;1.00;;;0.90;;
14592;SDS011;7383;52.354;9.756;2022-10-16T11:47:09;0.65;;;0.43;;
14592;SDS011;7383;52.354;9.756;2022-10-16T11:49:45;0.47;;;0.47;;
14592;SDS011;7383;52.354;9.756;2022-10-16T11:52:17;0.80;;;0.65;;
14592;SDS011;7383;52.354;9.756;2022-10-16T11:54:50;1.13;;;0.50;;
14592;SDS011;7383;52.354;9.756;2022-10-16T11:57:22;0.40;;;0.40;;
14592;SDS011;7383;52.354;9.756;2022-10-16T11:59:54;0.40;;;0.40;;
14592;SDS011;7383;52.354;9.756;2022-10-16T12:02:33;1.55;;;0.40;;
14592;SDS011;7383;52.354;9.756;2022-10-16T12:05:11;0.43;;;0.35;;
14592;SDS011;7383;52.354;9.756;2022-10-16T12:07:47;0.63;;;0.40;;
14592;SDS011;7383;52.354;9.756;2022-10-16T12:10:19;0.50;;;0.50;;
14592;SDS011;7383;52.354;9.756;2022-10-16T12:12:50;0.65;;;0.60;;
14592;SDS011;7383;52.354;9.756;2022-10-16T12:15:22;0.90;;;0.90;;
14592;SDS011;7383;52.354;9.756;2022-10-16T12:17:51;0.50;;;0.50;;
14592;SDS011;7383;52.354;9.756;2022-10-16T12:20:20;0.60;;;0.50;;
14592;SDS011;7383;52.354;9.756;2022-10-16T12:22:51;0.63;;;0.50;;
14592;SDS011;7383;52.354;9.756;2022-10-16T12:25:20;0.47;;;0.35;;
14592;SDS011;7383;52.354;9.756;2022-10-16T12:27:57;0.35;;;0.35;;
14592;SDS011;7383;52.354;9.756;2022-10-16T12:30:26;0.40;;;0.32;;
14592;SDS011;7383;52.354;9.756;2022-10-16T12:32:55;0.40;;;0.40;;
14592;SDS011;7383;52.354;9.756;2022-10-16T12:35:24;0.28;;;0.28;;
14592;SDS011;7383;52.354;9.756;2022-10-16T12:37:53;0.40;;;0.40;;
14592;SDS011;7383;52.354;9.756;2022-10-16T12:40:33;0.57;;;0.57;;
14592;SDS011;7383;52.354;9.756;2022-10-16T12:43:13;0.57;;;0.57;;
14592;SDS011;7383;52.354;9.756;2022-10-16T12:46:01;0.55;;;0.55;;
14592;SDS011;7383;52.354;9.756;2022-10-16T12:48:29;0.30;;;0.30;;
14592;SDS011;7383;52.354;9.756;2022-10-16T12:50:56;0.50;;;0.47;;
14592;SDS011;7383;52.354;9.756;2022-10-16T12:53:23;0.55;;;0.30;;
14592;SDS011;7383;52.354;9.756;2022-10-16T12:55:59;0.40;;;0.30;;
14592;SDS011;7383;52.354;9.756;2022-10-16T12:58:37;0.40;;;0.40;;
14592;SDS011;7383;52.354;9.756;2022-10-16T13:01:23;0.80;;;0.52;;
14592;SDS011;7383;52.354;9.756;2022-10-16T13:04:02;0.55;;;0.55;;
14592;SDS011;7383;52.354;9.756;2022-10-16T13:06:42;0.57;;;0.47;;
14592;SDS011;7383;52.354;9.756;2022-10-16T13:09:28;0.40;;;0.40;;
14592;SDS011;7383;52.354;9.756;2022-10-16T13:12:15;0.57;;;0.40;;
14592;SDS011;7383;52.354;9.756;2022-10-16T13:17:45;0.68;;;0.68;;
14592;SDS011;7383;52.354;9.756;2022-10-16T13:20:21;0.60;;;0.60;;
14592;SDS011;7383;52.354;9.756;2022-10-16T13:22:57;0.35;;;0.35;;
14592;SDS011;7383;52.354;9.756;2022-10-16T13:25:34;0.63;;;0.60;;
14592;SDS011;7383;52.354;9.756;2022-10-16T13:28:12;0.47;;;0.47;;
14592;SDS011;7383;52.354;9.756;2022-10-16T13:30:41;0.90;;;0.68;;
14592;SDS011;7383;52.354;9.756;2022-10-16T13:33:13;0.30;;;0.30;;
14592;SDS011;7383;52.354;9.756;2022-10-16T13:35:47;0.25;;;0.25;;
14592;SDS011;7383;52.354;9.756;2022-10-16T13:38:24;0.93;;;0.50;;
14592;SDS011;7383;52.354;9.756;2022-10-16T13:40:53;0.63;;;0.60;;
14592;SDS011;7383;52.354;9.756;2022-10-16T13:43:26;0.60;;;0.60;;
14592;SDS011;7383;52.354;9.756;2022-10-16T13:46:01;1.27;;;0.50;;
14592;SDS011;7383;52.354;9.756;2022-10-16T13:48:32;0.50;;;0.40;;
14592;SDS011;7383;52.354;9.756;2022-10-16T13:51:04;0.70;;;0.40;;
14592;SDS011;7383;52.354;9.756;2022-10-16T13:53:33;1.42;;;0.40;;
14592;SDS011;7383;52.354;9.756;2022-10-16T13:56:01;0.52;;;0.52;;
14592;SDS011;7383;52.354;9.756;2022-10-16T13:59:06;0.73;;;0.50;;
14592;SDS011;7383;52.354;9.756;2022-10-16T14:01:49;0.40;;;0.40;;
14592;SDS011;7383;52.354;9.756;2022-10-16T14:04:19;0.77;;;0.50;;
14592;SDS011;7383;52.354;9.756;2022-10-16T14:06:48;1.00;;;0.60;;
14592;SDS011;7383;52.354;9.756;2022-10-16T14:09:18;0.40;;;0.40;;
14592;SDS011;7383;52.354;9.756;2022-10-16T14:11:53;0.52;;;0.50;;
14592;SDS011;7383;52.354;9.756;2022-10-16T14:14:26;0.55;;;0.40;;
14592;SDS011;7383;52.354;9.756;2022-10-16T14:16:58;0.65;;;0.40;;
14592;SDS011;7383;52.354;9.756;2022-10-16T14:19:26;0.60;;;0.45;;
14592;SDS011;7383;52.354;9.756;2022-10-16T14:21:58;1.52;;;0.30;;
14592;SDS011;7383;52.354;9.756;2022-10-16T14:24:26;0.63;;;0.30;;
14592;SDS011;7383;52.354;9.756;2022-10-16T14:27:00;0.45;;;0.45;;
14592;SDS011;7383;52.354;9.756;2022-10-16T14:30:01;0.50;;;0.50;;
14592;SDS011;7383;52.354;9.756;2022-10-16T14:32:39;0.47;;;0.47;;
14592;SDS011;7383;52.354;9.756;2022-10-16T14:35:21;0.77;;;0.77;;
14592;SDS011;7383;52.354;9.756;2022-10-16T14:37:57;0.55;;;0.55;;
14592;SDS011;7383;52.354;9.756;2022-10-16T14:40:46;0.50;;;0.50;;
14592;SDS011;7383;52.354;9.756;2022-10-16T14:43:17;0.30;;;0.30;;
14592;SDS011;7383;52.354;9.756;2022-10-16T14:45:52;0.50;;;0.50;;
14592;SDS011;7383;52.354;9.756;2022-10-16T14:48:20;0.40;;;0.40;;
14592;SDS011;7383;52.354;9.756;2022-10-16T14:50:47;0.70;;;0.63;;
14592;SDS011;7383;52.354;9.756;2022-10-16T14:53:14;0.28;;;0.28;;
14592;SDS011;7383;52.354;9.756;2022-10-16T14:55:44;0.40;;;0.30;;
14592;SDS011;7383;52.354;9.756;2022-10-16T14:58:15;0.38;;;0.38;;
14592;SDS011;7383;52.354;9.756;2022-10-16T15:00:53;0.30;;;0.30;;
14592;SDS011;7383;52.354;9.756;2022-10-16T15:03:22;0.38;;;0.35;;
14592;SDS011;7383;52.354;9.756;2022-10-16T15:05:48;0.57;;;0.50;;
14592;SDS011;7383;52.354;9.756;2022-10-16T15:08:15;0.88;;;0.70;;
14592;SDS011;7383;52.354;9.756;2022-10-16T15:10:46;0.88;;;0.60;;
14592;SDS011;7383;52.354;9.756;2022-10-16T15:13:16;0.57;;;0.57;;
14592;SDS011;7383;52.354;9.756;2022-10-16T15:18:33;0.73;;;0.60;;
14592;SDS011;7383;52.354;9.756;2022-10-16T15:21:20;0.98;;;0.70;;
14592;SDS011;7383;52.354;9.756;2022-10-16T15:24:01;0.40;;;0.40;;
14592;SDS011;7383;52.354;9.756;2022-10-16T15:26:28;0.50;;;0.40;;
14592;SDS011;7383;52.354;9.756;2022-10-16T15:29:04;0.88;;;0.70;;
14592;SDS011;7383;52.354;9.756;2022-10-16T15:31:32;1.35;;;0.77;;
14592;SDS011;7383;52.354;9.756;2022-10-16T15:34:02;0.80;;;0.60;;
14592;SDS011;7383;52.354;9.756;2022-10-16T15:36:32;1.17;;;0.98;;
14592;SDS011;7383;52.354;9.756;2022-10-16T15:39:02;0.52;;;0.52;;
14592;SDS011;7383;52.354;9.756;2022-10-16T15:41:32;0.68;;;0.55;;
14592;SDS011;7383;52.354;9.756;2022-10-16T15:43:59;0.70;;;0.70;;
14592;SDS011;7383;52.354;9.756;2022-10-16T15:46:26;1.48;;;0.80;;
14592;SDS011;7383;52.354;9.756;2022-10-16T15:49:00;0.82;;;0.68;;
14592;SDS011;7383;52.354;9.756;2022-10-16T15:51:27;0.80;;;0.80;;
14592;SDS011;7383;52.354;9.756;2022-10-16T15:53:55;0.80;;;0.70;;
14592;SDS011;7383;52.354;9.756;2022-10-16T15:56:26;0.68;;;0.68;;
14592;SDS011;7383;52.354;9.756;2022-10-16T15:58:53;0.73;;;0.73;;
14592;SDS011;7383;52.354;9.756;2022-10-16T16:01:22;0.90;;;0.90;;
14592;SDS011;7383;52.354;9.756;2022-10-16T16:03:51;1.52;;;0.68;;
14592;SDS011;7383;52.354;9.756;2022-10-16T16:06:20;1.10;;;0.90;;
14592;SDS011;7383;52.354;9.756;2022-10-16T16:08:50;1.02;;;1.02;;
14592;SDS011;7383;52.354;9.756;2022-10-16T16:11:18;1.30;;;1.00;;
14592;SDS011;7383;52.354;9.756;2022-10-16T16:13:47;1.40;;;1.30;;
14592;SDS011;7383;52.354;9.756;2022-10-16T16:16:15;0.93;;;0.90;;
14592;SDS011;7383;52.354;9.756;2022-10-16T16:18:48;0.90;;;0.90;;
14592;SDS011;7383;52.354;9.756;2022-10-16T16:21:18;1.40;;;1.30;;
14592;SDS011;7383;52.354;9.756;2022-10-16T16:23:47;1.10;;;1.10;;
14592;SDS011;7383;52.354;9.756;2022-10-16T16:26:15;1.42;;;1.33;;
14592;SDS011;7383;52.354;9.756;2022-10-16T16:28:51;1.10;;;1.10;;
14592;SDS011;7383;52.354;9.756;2022-10-16T16:31:19;1.45;;;1.35;;
14592;SDS011;7383;52.354;9.756;2022-10-16T16:33:47;1.25;;;1.10;;
14592;SDS011;7383;52.354;9.756;2022-10-16T16:36:16;2.40;;;1.00;;
14592;SDS011;7383;52.354;9.756;2022-10-16T16:42:25;1.00;;;1.00;;
14592;SDS011;7383;52.354;9.756;2022-10-16T16:44:54;1.17;;;1.17;;
14592;SDS011;7383;52.354;9.756;2022-10-16T16:48:15;1.30;;;1.20;;
14592;SDS011;7383;52.354;9.756;2022-10-16T16:51:27;1.10;;;1.00;;
14592;SDS011;7383;52.354;9.756;2022-10-16T16:54:25;1.30;;;1.20;;
14592;SDS011;7383;52.354;9.756;2022-10-16T16:56:57;0.93;;;0.88;;
14592;SDS011;7383;52.354;9.756;2022-10-16T16:59:24;1.33;;;1.23;;
14592;SDS011;7383;52.354;9.756;2022-10-16T17:01:57;1.00;;;1.00;;
14592;SDS011;7383;52.354;9.756;2022-10-16T17:04:28;1.67;;;1.20;;
14592;SDS011;7383;52.354;9.756;2022-10-16T17:07:01;0.75;;;0.75;;
14592;SDS011;7383;52.354;9.756;2022-10-16T17:09:33;1.45;;;1.20;;
14592;SDS011;7383;52.354;9.756;2022-10-16T17:12:03;1.90;;;1.70;;
14592;SDS011;7383;52.354;9.756;2022-10-16T17:14:35;1.23;;;1.17;;
14592;SDS011;7383;52.354;9.756;2022-10-16T17:17:05;1.70;;;1.60;;
14592;SDS011;7383;52.354;9.756;2022-10-16T17:19:32;1.40;;;1.30;;
14592;SDS011;7383;52.354;9.756;2022-10-16T17:21:59;1.38;;;1.20;;
14592;SDS011;7383;52.354;9.756;2022-10-16T17:24:26;1.30;;;1.20;;